Lithia, FL (33547)

10:20 AM EDT on September 02, 2014 (GMT -0400)
Fishhawk Trails (KFLLITHI5) | Change Station
CLOSE
Current Station
Personal Weather Station
Location: Lithia, FL
Elevation: 104 ft
Nearby Weather Stations

Elev 104 ft 27.86 °N, 82.19 °W | Updated 1 minute ago

Clear
Clear
85.3 °F
Feels Like 97 °F
N
0.0
Wind Variable Wind from NNW
Gusts 2.0 mph

Today
High -- | Low -- °F
--% Chance of Precip.
Yesterday
High -- | Low -- °F
Precip. -- in
7:07 AM 7:48 PM
First Quarter, 52% visible
Pressure 30.12 in
Visibility 10.0 miles
Clouds Clear
Heat Index 97 °F
Dew Point 78 °F
Humidity 79%
Rainfall 0.00 in
Snow Depth Not available.
UV 6 out of 12
Pollen 5.20 out of 12
Air Quality Not available.
Flu Activity Not available.
METAR KPCM 021415Z AUTO 13003KT 10SM CLR 31/24 A3012 RMK AO2

More Conditions Fewer Conditions

Pressure 30.12 in
Visibility 10.0 miles
Clouds Clear
Heat Index 97 °F
Dew Point 78 °F
Humidity 79%
Rainfall 0.00 in
Snow Depth Not available.
UV 6 out of 12
Pollen 5.20 out of 12
Air Quality Not available.
Flu Activity Not available.
METAR KPCM 021415Z AUTO 13003KT 10SM CLR 31/24 A3012 RMK AO2

More Conditions Fewer Conditions

10-Day Weather Forecast

Almanac

Astronomy

Sep. 02, 2014 Rise Set
Actual Time 7:07 AM EDT 7:48 PM EDT
Civil Twilight 6:44 AM EDT 8:11 PM EDT
Nautical Twilight 6:16 AM EDT 8:39 PM EDT
Astronomical Twilight 5:47 AM EDT 9:08 PM EDT
Moon 2:14 PM EDT 12:24 AM EDT
Length of Visible Light 13h 27m
Length of Day
12h 40m
Tomorrow will be 1m 35s shorter.
First Quarter, 52% of the Moon is Illuminated
Today
First Quarter
Sep 8
Full
Sep 15
Last Quarter
Sep 24
New
Oct 1
First Quarter

Today's Extremes

State Highs State Lows

Community

WunderPhotos

Upload Photos

1,749,677 photos uploaded!

WunderBlogs® & News

Nearby

Snow Depth

Station Depth Elevation
No new snow has been reported.

Earthquake Activity

City Distance Mag. Time & Date
No recent earthquake activity has been reported nearby.
Minimum magnitude displayed is 2.5.

Coastal Water Temperatures

Place Temperature
St Petersburg, FL 90.0 °F
Old Port Tampa, FL 88.0 °F
McKay Bay Entrance, FL 89.1 °F

Nearby Weather Stations